Alexandria, AL

7:05 AM CDT on May 04, 2015 (GMT -0500)
saks | | Change Station
CLOSE
Current Station
Personal Weather Station
Location: Anniston, AL
Elevation: 692 ft
Nearby Weather Stations

Elev 692 ft 33.72 °N, 85.86 °W | Updated 4 minutes ago

Clear
Clear
51.6 °F
Feels Like 51.6 °F
N
0.0
Wind Variable Wind from North

Today
High -- | Low -- °F
--% Chance of Precip.
Yesterday
High -- | Low -- °F
Precip. -- in
5:52 AM 7:29 PM
Full, 100% visible
Pressure 30.26 in
Visibility 2.5 miles
Clouds Few 7500 ft
Dew Point 51 °F
Humidity 99%
Rainfall 0.00 in
Snow Depth Not available.
UV 1 out of 12
Pollen 7.50 out of 12
Air Quality Not available.
Flu Activity Sporadic
METAR KANB 041153Z AUTO 13003KT 2 1/2SM BR FEW075 13/11 A3026 RMK AO2 SLP246 T01280111 10139 20106 52030 $

More Conditions Fewer Conditions

Pressure 30.26 in
Visibility 2.5 miles
Clouds Few 7500 ft
Dew Point 51 °F
Humidity 99%
Rainfall 0.00 in
Snow Depth Not available.
UV 1 out of 12
Pollen 7.50 out of 12
Air Quality Not available.
Flu Activity Sporadic
METAR KANB 041153Z AUTO 13003KT 2 1/2SM BR FEW075 13/11 A3026 RMK AO2 SLP246 T01280111 10139 20106 52030 $

More Conditions Fewer Conditions

Nepal has a long way to go to dig out and rebuild from a devastating earthquake. We have teamed up with several charities and organizations to make contributing to the relief effort as easy as possible.
How you can help: Portlight Strategies | Red Cross

10-Day Weather Forecast

Almanac

Astronomy

May. 04, 2015 Rise Set
Actual Time
Civil Twilight
Nautical Twilight
Astronomical Twilight
Moon
Length of Visible Light
Length of Day
Tomorrow will be .
, % of the Moon is Illuminated

Today's Extremes

State Highs State Lows

Community

WunderPhotos

Upload Photos

1,818,580 photos uploaded!

WunderBlogs® & News

Nearby

Air Quality

  Air Quality AQ Index Pollutant
Not available.

Snow Depth

Station Depth Elevation

Earthquake Activity

City Distance Mag. Time & Date
Minimum magnitude displayed is 2.5.

Coastal Water Temperatures

Place Temperature

Stations

Nearby Weather Stations

Station Location Temp. Windchill Dew Point Humidity Wind Precip. Elev Updated Type